createdAt,value
2023-03-16T00:01:07.908Z,22.60
2023-03-16T00:03:36.590Z,22.80
2023-03-16T00:06:07.034Z,22.50
2023-03-16T00:08:35.495Z,22.50
2023-03-16T00:11:03.014Z,22.50
2023-03-16T00:13:32.836Z,22.50
2023-03-16T00:16:07.760Z,22.50
2023-03-16T00:18:39.000Z,22.50
2023-03-16T00:21:06.567Z,22.50
2023-03-16T00:23:38.198Z,22.40
2023-03-16T00:26:08.525Z,22.40
2023-03-16T00:28:37.153Z,22.40
2023-03-16T00:31:14.936Z,22.40
2023-03-16T00:33:45.935Z,22.40
2023-03-16T00:36:16.886Z,22.40
2023-03-16T00:38:49.192Z,22.40
2023-03-16T00:41:16.666Z,22.40
2023-03-16T00:43:46.832Z,22.30
2023-03-16T00:46:17.331Z,22.30
2023-03-16T00:48:47.717Z,22.30
2023-03-16T00:51:19.458Z,22.30
2023-03-16T00:53:49.726Z,22.30
2023-03-16T00:56:17.652Z,22.30
2023-03-16T00:58:45.816Z,22.20
2023-03-16T01:01:20.093Z,22.30
2023-03-16T01:03:47.656Z,22.20
2023-03-16T01:06:18.405Z,22.20
2023-03-16T01:08:48.761Z,22.20
2023-03-16T01:11:22.826Z,22.20
2023-03-16T01:13:54.510Z,22.20
2023-03-16T01:16:24.986Z,22.20
2023-03-16T01:18:56.140Z,22.20
2023-03-16T01:21:23.768Z,22.20
2023-03-16T01:23:51.128Z,22.20
2023-03-16T01:26:18.808Z,22.20
2023-03-16T01:28:46.062Z,22.20
2023-03-16T01:31:16.581Z,22.20
2023-03-16T01:33:44.144Z,22.20
2023-03-16T01:36:15.985Z,22.10
2023-03-16T01:38:43.851Z,22.10
2023-03-16T01:41:14.031Z,22.10
2023-03-16T01:43:42.525Z,22.10
2023-03-16T01:46:25.072Z,22.10
2023-03-16T01:49:10.645Z,22.10
2023-03-16T01:51:52.184Z,22.10
2023-03-16T01:54:30.012Z,22.10
2023-03-16T01:57:21.021Z,22.10
2023-03-16T02:00:20.660Z,22.10
2023-03-16T02:02:56.898Z,22.10
2023-03-16T02:05:50.478Z,22.10
2023-03-16T02:08:19.471Z,22.10
2023-03-16T02:10:46.819Z,22.10
2023-03-16T02:13:14.118Z,22.00
2023-03-16T02:15:41.227Z,22.00
2023-03-16T02:18:13.455Z,22.00
2023-03-16T02:20:47.704Z,22.00
2023-03-16T02:23:21.136Z,22.00
2023-03-16T02:26:06.155Z,22.00
2023-03-16T02:29:17.476Z,22.00
2023-03-16T02:31:44.781Z,22.00
2023-03-16T02:34:16.672Z,22.00
2023-03-16T02:36:47.997Z,21.90
2023-03-16T02:39:15.092Z,22.00
2023-03-16T02:41:42.912Z,22.00
2023-03-16T02:44:17.912Z,21.90
2023-03-16T02:46:48.476Z,22.00
2023-03-16T02:49:37.916Z,21.90
2023-03-16T02:52:07.643Z,21.90
2023-03-16T02:54:35.115Z,21.90
2023-03-16T02:57:02.503Z,21.90
2023-03-16T02:59:29.603Z,21.90
2023-03-16T03:01:56.695Z,21.90
2023-03-16T03:04:25.431Z,21.90
2023-03-16T03:06:52.561Z,21.90
2023-03-16T03:09:20.832Z,21.90
2023-03-16T03:11:49.112Z,21.90
2023-03-16T03:14:17.406Z,21.90
2023-03-16T03:16:47.329Z,21.90
2023-03-16T03:19:14.720Z,21.80
2023-03-16T03:21:41.809Z,21.80
2023-03-16T03:24:10.336Z,21.80
2023-03-16T03:26:42.179Z,21.80
2023-03-16T03:29:09.052Z,21.80
2023-03-16T03:31:36.275Z,21.80
2023-03-16T03:34:06.617Z,21.80
2023-03-16T03:36:34.839Z,21.80
2023-03-16T03:39:06.280Z,21.80
2023-03-16T03:41:33.980Z,21.80
2023-03-16T03:44:04.823Z,21.80
2023-03-16T03:46:32.023Z,21.80
2023-03-16T03:49:03.765Z,21.80
2023-03-16T03:51:37.196Z,21.80
2023-03-16T03:54:05.176Z,21.80
2023-03-16T03:56:32.364Z,21.80
2023-03-16T03:58:59.455Z,21.80
2023-03-16T04:01:26.475Z,21.80
2023-03-16T04:03:53.448Z,21.70
2023-03-16T04:06:23.712Z,21.70
2023-03-16T04:08:51.258Z,21.80
2023-03-16T04:11:18.491Z,21.70
2023-03-16T04:13:47.840Z,21.70
2023-03-16T04:16:16.304Z,21.70
2023-03-16T04:18:51.175Z,21.70
2023-03-16T04:21:18.671Z,21.70
2023-03-16T04:23:46.157Z,21.70
2023-03-16T04:26:16.907Z,21.70
2023-03-16T04:28:43.847Z,22.80
2023-03-16T04:31:11.976Z,21.70
2023-03-16T04:33:40.404Z,21.70
2023-03-16T04:36:09.598Z,21.70
2023-03-16T04:38:36.816Z,21.60
2023-03-16T04:41:06.925Z,21.70
2023-03-16T04:43:34.659Z,21.70
2023-03-16T04:46:04.167Z,21.60
2023-03-16T04:48:35.036Z,21.60
2023-03-16T04:51:04.219Z,21.70
2023-03-16T04:53:32.397Z,21.60
2023-03-16T04:56:00.314Z,21.60
2023-03-16T04:58:28.109Z,21.60
2023-03-16T05:00:55.636Z,21.60
2023-03-16T05:03:24.011Z,21.60
2023-03-16T05:05:51.333Z,21.60
2023-03-16T05:08:18.428Z,21.60
2023-03-16T05:10:47.685Z,21.60
2023-03-16T05:13:15.083Z,21.60
2023-03-16T05:15:42.192Z,21.60
2023-03-16T05:18:10.099Z,21.60
2023-03-16T05:20:37.041Z,21.50
2023-03-16T05:23:07.141Z,21.50
2023-03-16T05:25:34.891Z,21.50
2023-03-16T05:28:04.688Z,21.50
2023-03-16T05:30:34.764Z,21.60
2023-03-16T05:33:02.024Z,21.50
2023-03-16T05:35:29.937Z,21.50
2023-03-16T05:37:57.240Z,21.60
2023-03-16T05:40:24.469Z,21.50
2023-03-16T05:42:57.023Z,21.50
2023-03-16T05:45:24.927Z,21.50
2023-03-16T05:47:54.855Z,21.50
2023-03-16T05:50:23.006Z,21.50
2023-03-16T05:52:50.097Z,21.50
2023-03-16T05:55:20.263Z,21.50
2023-03-16T05:57:50.609Z,21.50
2023-03-16T06:00:19.742Z,21.50
2023-03-16T06:02:53.390Z,21.50
2023-03-16T06:05:23.283Z,21.50
2023-03-16T06:07:51.462Z,21.50
2023-03-16T06:10:20.625Z,21.40
2023-03-16T06:12:48.127Z,21.50
2023-03-16T06:15:15.341Z,21.50
2023-03-16T06:17:43.000Z,21.50
2023-03-16T06:20:14.801Z,21.50
2023-03-16T06:22:44.285Z,21.50
2023-03-16T06:25:13.707Z,21.40
2023-03-16T06:27:43.388Z,21.40
2023-03-16T06:30:14.139Z,21.40
2023-03-16T06:32:42.759Z,21.40
2023-03-16T06:35:10.375Z,21.40
2023-03-16T06:37:38.820Z,21.40
2023-03-16T06:40:07.043Z,21.50
2023-03-16T06:42:34.209Z,21.50
2023-03-16T06:45:01.388Z,21.50
2023-03-16T06:47:29.638Z,21.60
2023-03-16T06:49:56.712Z,21.70
2023-03-16T06:52:26.743Z,21.80
2023-03-16T06:54:54.106Z,21.80
2023-03-16T06:57:21.396Z,22.00
2023-03-16T06:59:48.549Z,22.10
2023-03-16T07:02:17.134Z,22.20
2023-03-16T07:04:44.546Z,22.40
2023-03-16T07:07:12.554Z,22.60
2023-03-16T07:09:41.736Z,22.70
2023-03-16T07:12:10.327Z,22.80
2023-03-16T07:14:38.062Z,23.00
2023-03-16T07:17:05.300Z,23.10
2023-03-16T07:19:35.348Z,23.20
2023-03-16T07:22:03.068Z,23.40
2023-03-16T07:24:30.833Z,23.40
2023-03-16T07:26:58.802Z,23.70
2023-03-16T07:29:26.071Z,23.70
2023-03-16T07:31:54.210Z,23.90
2023-03-16T07:34:22.407Z,22.90
2023-03-16T07:36:49.679Z,24.10
2023-03-16T07:39:18.892Z,24.20
2023-03-16T07:41:46.184Z,24.30
2023-03-16T07:44:15.039Z,24.40
2023-03-16T07:46:43.095Z,24.50
2023-03-16T07:49:12.543Z,24.60
2023-03-16T07:51:40.162Z,24.70
2023-03-16T07:54:07.448Z,24.70
2023-03-16T07:56:48.195Z,24.80
2023-03-16T07:59:16.789Z,24.90
2023-03-16T08:01:46.765Z,24.90
2023-03-16T08:04:16.538Z,25.00
2023-03-16T08:06:47.514Z,25.00
2023-03-16T08:09:18.349Z,25.10
2023-03-16T08:11:46.620Z,25.10
2023-03-16T08:14:13.913Z,25.10
2023-03-16T08:16:41.562Z,25.20
2023-03-16T08:19:08.700Z,25.20
2023-03-16T08:21:48.753Z,25.20
2023-03-16T08:24:24.337Z,25.20
2023-03-16T08:26:51.444Z,25.20
2023-03-16T08:29:19.327Z,25.30
2023-03-16T08:31:47.204Z,25.30
2023-03-16T08:34:16.423Z,25.30
2023-03-16T08:36:44.765Z,25.30
2023-03-16T08:39:12.663Z,25.30
2023-03-16T08:41:40.984Z,25.30
2023-03-16T08:44:08.388Z,25.30
2023-03-16T08:46:36.097Z,25.30
2023-03-16T08:49:03.576Z,25.30
2023-03-16T08:51:31.593Z,25.20
2023-03-16T08:54:01.800Z,25.30
2023-03-16T08:56:30.655Z,25.30
2023-03-16T08:58:58.727Z,25.30
2023-03-16T09:01:27.306Z,25.30
2023-03-16T09:03:55.083Z,25.40
2023-03-16T09:06:22.442Z,25.30
2023-03-16T09:08:53.952Z,25.30
2023-03-16T09:11:22.668Z,25.40
2023-03-16T09:13:52.895Z,25.40
2023-03-16T09:16:25.976Z,25.30
2023-03-16T09:18:54.463Z,25.40
2023-03-16T09:21:21.784Z,25.40
2023-03-16T09:23:50.081Z,25.40
2023-03-16T09:26:17.893Z,25.40
2023-03-16T09:28:45.246Z,25.40
2023-03-16T09:31:19.874Z,25.40
2023-03-16T09:33:50.515Z,25.50
2023-03-16T09:36:18.748Z,25.60
2023-03-16T09:38:45.984Z,25.50
2023-03-16T09:41:44.703Z,25.60
2023-03-16T09:44:31.621Z,25.60
2023-03-16T09:47:04.115Z,25.70
2023-03-16T09:49:47.850Z,25.60
2023-03-16T09:52:41.890Z,25.70
2023-03-16T09:55:39.609Z,25.70
2023-03-16T09:58:18.261Z,25.80
2023-03-16T10:01:22.092Z,25.70
2023-03-16T10:04:10.017Z,25.80
2023-03-16T10:07:44.483Z,25.80
2023-03-16T10:10:51.957Z,25.70
2023-03-16T10:13:30.926Z,25.70
2023-03-16T10:16:05.517Z,25.80
2023-03-16T10:18:45.212Z,25.80
2023-03-16T10:21:17.190Z,25.90
2023-03-16T10:23:47.495Z,26.00
2023-03-16T10:26:23.071Z,25.90
2023-03-16T10:28:53.316Z,26.00
2023-03-16T10:31:23.492Z,26.00
2023-03-16T10:33:58.912Z,26.00
2023-03-16T10:36:35.157Z,26.00
2023-03-16T10:39:19.753Z,26.00
2023-03-16T10:41:57.619Z,26.00
2023-03-16T10:44:28.579Z,26.00
2023-03-16T10:47:05.405Z,25.90
2023-03-16T10:49:49.067Z,25.80
2023-03-16T10:52:49.951Z,25.80
2023-03-16T10:55:43.782Z,25.90
2023-03-16T10:58:10.991Z,25.80
2023-03-16T11:00:43.759Z,25.80
2023-03-16T11:03:27.687Z,25.90
2023-03-16T11:06:06.930Z,25.60
2023-03-16T11:08:41.591Z,26.10
2023-03-16T11:11:16.512Z,26.20
2023-03-16T11:13:48.925Z,26.20
2023-03-16T11:16:31.005Z,26.20
2023-03-16T11:19:24.145Z,26.30
2023-03-16T11:22:01.438Z,26.40
2023-03-16T11:25:07.288Z,26.40
2023-03-16T11:27:49.651Z,26.50
2023-03-16T11:31:03.985Z,26.60
2023-03-16T11:33:32.604Z,26.70
2023-03-16T11:36:28.299Z,26.80
2023-03-16T11:39:14.423Z,26.90
2023-03-16T11:42:10.399Z,27.00
2023-03-16T11:45:17.590Z,27.10
2023-03-16T11:47:59.736Z,27.30
2023-03-16T11:51:12.187Z,27.50
2023-03-16T11:54:02.428Z,27.60
2023-03-16T11:56:52.894Z,27.90
2023-03-16T12:00:01.142Z,28.10
2023-03-16T12:02:55.391Z,28.30
2023-03-16T12:05:55.724Z,28.50
2023-03-16T12:09:06.450Z,28.60
2023-03-16T12:11:51.648Z,28.90
2023-03-16T12:14:36.863Z,29.00
2023-03-16T12:17:17.938Z,29.10
2023-03-16T12:20:07.475Z,29.20
2023-03-16T12:22:55.302Z,29.20
2023-03-16T12:25:49.783Z,29.10
2023-03-16T12:28:25.190Z,29.10
2023-03-16T12:31:25.794Z,29.00
2023-03-16T12:34:31.419Z,28.90
2023-03-16T12:37:27.535Z,28.80
2023-03-16T12:40:30.169Z,28.70
2023-03-16T12:43:59.825Z,28.50
2023-03-16T12:46:48.036Z,28.40
2023-03-16T12:49:16.341Z,28.20
2023-03-16T12:51:47.878Z,28.20
2023-03-16T12:54:24.339Z,28.10
2023-03-16T12:57:00.713Z,28.00
2023-03-16T12:59:42.765Z,27.90
2023-03-16T13:02:34.531Z,27.90
2023-03-16T13:05:15.576Z,27.80
2023-03-16T13:07:52.519Z,27.70
2023-03-16T13:10:21.189Z,27.70
2023-03-16T13:12:50.780Z,27.60
2023-03-16T13:15:22.204Z,27.60
2023-03-16T13:18:09.944Z,27.50
2023-03-16T13:21:02.680Z,27.50
2023-03-16T13:23:52.824Z,27.60
2023-03-16T13:26:44.289Z,28.60
2023-03-16T13:29:27.596Z,27.70
2023-03-16T13:32:02.862Z,27.90
2023-03-16T13:34:36.386Z,28.00
2023-03-16T13:37:04.755Z,28.10
2023-03-16T13:39:34.559Z,28.20
2023-03-16T13:42:19.521Z,28.30
2023-03-16T13:44:50.426Z,28.40
2023-03-16T13:47:21.278Z,28.50
2023-03-16T13:50:01.213Z,28.50
2023-03-16T13:52:37.725Z,28.50
2023-03-16T13:55:18.547Z,28.50
2023-03-16T13:57:49.398Z,28.50
2023-03-16T14:00:26.524Z,28.20
2023-03-16T14:02:57.731Z,28.50
2023-03-16T14:05:33.530Z,28.40
2023-03-16T14:08:02.791Z,28.50
2023-03-16T14:10:37.995Z,28.40
2023-03-16T14:13:36.093Z,28.40
2023-03-16T14:16:18.664Z,28.30
2023-03-16T14:18:52.489Z,28.30
2023-03-16T14:21:28.091Z,28.30
2023-03-16T14:24:02.439Z,28.30
2023-03-16T14:26:45.244Z,28.20
2023-03-16T14:29:42.629Z,28.20
2023-03-16T14:32:38.024Z,28.20
2023-03-16T14:35:17.545Z,28.30
2023-03-16T14:37:45.110Z,28.30
2023-03-16T14:40:33.672Z,28.40
2023-03-16T14:43:08.228Z,28.40
2023-03-16T14:45:39.127Z,28.50
2023-03-16T14:48:20.812Z,28.70
2023-03-16T14:50:58.005Z,28.70
2023-03-16T14:53:28.426Z,28.80
2023-03-16T14:55:56.863Z,28.90
2023-03-16T14:58:25.040Z,28.90
2023-03-16T15:00:54.618Z,29.00
2023-03-16T15:03:33.534Z,29.00
2023-03-16T15:06:03.333Z,29.00
2023-03-16T15:08:37.204Z,29.00
2023-03-16T15:11:07.709Z,29.00
2023-03-16T15:13:53.527Z,29.00
2023-03-16T15:16:26.227Z,29.00
2023-03-16T15:18:53.847Z,29.00
2023-03-16T15:21:31.942Z,29.00
2023-03-16T15:23:59.756Z,28.70
2023-03-16T15:26:29.703Z,28.90
2023-03-16T15:28:57.867Z,28.80
2023-03-16T15:31:26.757Z,28.70
2023-03-16T15:33:53.996Z,28.60
2023-03-16T15:36:24.677Z,28.50
2023-03-16T15:38:55.643Z,28.50
2023-03-16T15:41:24.929Z,28.40
2023-03-16T15:43:52.847Z,28.30
2023-03-16T15:46:23.486Z,28.30
2023-03-16T15:48:50.860Z,28.20
2023-03-16T15:51:28.967Z,28.20
2023-03-16T15:54:07.017Z,28.10
2023-03-16T15:56:53.365Z,28.20
2023-03-16T15:59:24.631Z,28.10
2023-03-16T16:01:57.228Z,28.00
2023-03-16T16:04:25.697Z,28.00
2023-03-16T16:06:58.217Z,27.90
2023-03-16T16:09:25.608Z,27.80
2023-03-16T16:11:56.319Z,27.80
2023-03-16T16:14:26.658Z,27.80
2023-03-16T16:16:54.822Z,27.70
2023-03-16T16:19:22.086Z,27.70
2023-03-16T16:21:49.929Z,27.60
2023-03-16T16:24:18.722Z,27.60
2023-03-16T16:26:55.628Z,27.60
2023-03-16T16:29:34.038Z,27.50
2023-03-16T16:32:02.099Z,27.50
2023-03-16T16:34:29.409Z,27.70
2023-03-16T16:36:59.176Z,27.30
2023-03-16T16:39:27.832Z,27.30
2023-03-16T16:41:59.275Z,27.20
2023-03-16T16:44:33.578Z,27.20
2023-03-16T16:47:03.734Z,27.20
2023-03-16T16:49:32.678Z,27.10
2023-03-16T16:52:00.179Z,27.10
2023-03-16T16:54:32.161Z,27.00
2023-03-16T16:57:02.022Z,27.10
2023-03-16T16:59:36.920Z,27.00
2023-03-16T17:02:32.047Z,27.00
2023-03-16T17:04:59.391Z,26.90
2023-03-16T17:07:27.928Z,26.90
2023-03-16T17:09:55.393Z,26.90
2023-03-16T17:12:24.524Z,26.90
2023-03-16T17:14:51.956Z,26.90
2023-03-16T17:17:19.375Z,26.80
2023-03-16T17:19:48.967Z,26.70
2023-03-16T17:22:25.270Z,26.60
2023-03-16T17:24:53.394Z,26.60
2023-03-16T17:27:29.908Z,26.60
2023-03-16T17:29:57.983Z,26.60
2023-03-16T17:32:25.758Z,26.60
2023-03-16T17:34:56.455Z,26.50
2023-03-16T17:37:24.215Z,26.50
2023-03-16T17:39:52.002Z,26.50
2023-03-16T17:42:22.797Z,26.40
2023-03-16T17:44:53.110Z,26.40
2023-03-16T17:47:31.322Z,26.40
2023-03-16T17:50:03.252Z,26.30
2023-03-16T17:52:31.563Z,26.30
2023-03-16T17:54:58.886Z,26.20
2023-03-16T17:57:33.833Z,25.80
2023-03-16T18:00:18.642Z,26.20
2023-03-16T18:02:50.578Z,26.10
2023-03-16T18:05:27.187Z,26.00
2023-03-16T18:07:56.411Z,26.00
2023-03-16T18:10:31.348Z,25.90
2023-03-16T18:13:08.374Z,25.90
2023-03-16T18:15:37.090Z,25.80
2023-03-16T18:18:10.488Z,25.80
2023-03-16T18:20:40.263Z,25.80
2023-03-16T18:23:26.831Z,25.70
2023-03-16T18:25:57.107Z,25.60
2023-03-16T18:28:24.481Z,26.50
2023-03-16T18:30:53.745Z,25.60
2023-03-16T18:33:25.586Z,25.50
2023-03-16T18:35:56.821Z,25.40
2023-03-16T18:38:31.370Z,25.40
2023-03-16T18:41:25.613Z,25.40
2023-03-16T18:43:56.921Z,25.30
2023-03-16T18:46:26.830Z,25.30
2023-03-16T18:48:58.120Z,25.20
2023-03-16T18:51:26.878Z,25.20
2023-03-16T18:53:54.180Z,25.10
2023-03-16T18:56:27.849Z,25.10
2023-03-16T18:58:57.024Z,25.00
2023-03-16T19:01:33.080Z,25.00
2023-03-16T19:04:02.519Z,25.00
2023-03-16T19:06:35.179Z,24.90
2023-03-16T19:09:12.904Z,24.90
2023-03-16T19:11:44.518Z,24.90
2023-03-16T19:14:34.797Z,24.80
2023-03-16T19:17:04.764Z,24.80
2023-03-16T19:19:32.113Z,24.70
2023-03-16T19:22:13.014Z,24.70
2023-03-16T19:24:56.243Z,24.60
2023-03-16T19:27:29.196Z,24.60
2023-03-16T19:29:57.432Z,24.60
2023-03-16T19:32:27.224Z,24.50
2023-03-16T19:34:55.079Z,24.50
2023-03-16T19:37:24.694Z,24.50
2023-03-16T19:39:52.116Z,24.40
2023-03-16T19:42:42.506Z,24.40
2023-03-16T19:45:30.226Z,24.40
2023-03-16T19:47:57.648Z,24.40
2023-03-16T19:50:29.508Z,24.30
2023-03-16T19:53:00.707Z,24.00
2023-03-16T19:55:32.817Z,24.30
2023-03-16T19:58:08.198Z,24.20
2023-03-16T20:00:36.210Z,24.20
2023-03-16T20:03:03.479Z,24.20
2023-03-16T20:05:35.851Z,24.20
2023-03-16T20:08:06.719Z,24.10
2023-03-16T20:10:34.312Z,24.10
2023-03-16T20:13:02.477Z,24.10
2023-03-16T20:15:33.309Z,24.10
2023-03-16T20:18:01.233Z,24.10
2023-03-16T20:20:33.505Z,24.00
2023-03-16T20:23:02.093Z,24.00
2023-03-16T20:25:32.520Z,24.00
2023-03-16T20:28:02.239Z,24.00
2023-03-16T20:30:33.098Z,23.90
2023-03-16T20:33:00.957Z,24.00
2023-03-16T20:35:32.579Z,23.90
2023-03-16T20:37:59.851Z,23.90
2023-03-16T20:40:27.552Z,23.90
2023-03-16T20:42:54.871Z,23.80
2023-03-16T20:45:27.454Z,23.90
2023-03-16T20:47:54.928Z,23.80
2023-03-16T20:50:32.896Z,23.80
2023-03-16T20:52:59.981Z,23.80
2023-03-16T20:55:31.534Z,23.80
2023-03-16T20:57:59.357Z,23.70
2023-03-16T21:00:37.006Z,23.70
2023-03-16T21:03:24.884Z,23.70
2023-03-16T21:05:54.348Z,23.70
2023-03-16T21:08:27.374Z,23.70
2023-03-16T21:10:57.099Z,23.80
2023-03-16T21:13:33.004Z,23.70
2023-03-16T21:16:03.780Z,23.70
2023-03-16T21:18:33.152Z,23.60
2023-03-16T21:21:00.207Z,23.60
2023-03-16T21:23:27.640Z,23.60
2023-03-16T21:26:00.904Z,23.70
2023-03-16T21:28:35.489Z,23.60
2023-03-16T21:31:03.913Z,23.60
2023-03-16T21:33:39.243Z,23.60
2023-03-16T21:36:19.304Z,23.50
2023-03-16T21:38:47.611Z,23.50
2023-03-16T21:41:15.303Z,23.50
2023-03-16T21:43:47.009Z,23.50
2023-03-16T21:46:19.189Z,23.50
2023-03-16T21:48:49.682Z,23.40
2023-03-16T21:51:30.178Z,23.40
2023-03-16T21:53:58.303Z,23.40
2023-03-16T21:56:26.668Z,23.40
2023-03-16T21:58:54.844Z,23.40
2023-03-16T22:01:26.902Z,23.40
2023-03-16T22:03:57.923Z,23.40
2023-03-16T22:06:29.705Z,23.40
2023-03-16T22:09:04.976Z,23.40
2023-03-16T22:11:32.320Z,23.40
2023-03-16T22:14:00.245Z,23.40
2023-03-16T22:16:31.902Z,23.30
2023-03-16T22:18:59.082Z,23.30
2023-03-16T22:21:40.342Z,23.30
2023-03-16T22:24:20.764Z,23.30
2023-03-16T22:26:49.023Z,23.30
2023-03-16T22:29:33.557Z,23.30
2023-03-16T22:32:14.943Z,23.30
2023-03-16T22:34:52.473Z,23.30
2023-03-16T22:37:29.326Z,23.30
2023-03-16T22:40:00.415Z,23.20
2023-03-16T22:42:38.939Z,23.30
2023-03-16T22:45:22.321Z,23.20
2023-03-16T22:47:52.418Z,23.20
2023-03-16T22:50:22.029Z,23.20
2023-03-16T22:52:54.456Z,23.20
2023-03-16T22:55:35.955Z,23.20
2023-03-16T22:58:28.147Z,23.20
2023-03-16T23:00:55.699Z,23.20
2023-03-16T23:03:24.465Z,23.10
2023-03-16T23:05:52.767Z,23.10
2023-03-16T23:08:28.165Z,22.80
2023-03-16T23:10:56.149Z,21.60
2023-03-16T23:13:27.868Z,23.20
2023-03-16T23:15:56.868Z,23.10
2023-03-16T23:18:26.412Z,23.10
2023-03-16T23:20:54.648Z,23.10
2023-03-16T23:23:22.131Z,23.10
2023-03-16T23:25:49.156Z,23.10
2023-03-16T23:28:23.069Z,23.10
2023-03-16T23:30:51.365Z,23.10
2023-03-16T23:33:19.128Z,23.10
2023-03-16T23:35:46.863Z,23.00
2023-03-16T23:38:17.614Z,23.00
2023-03-16T23:40:44.756Z,23.00
2023-03-16T23:43:11.975Z,23.10
2023-03-16T23:45:46.920Z,23.00
2023-03-16T23:48:23.792Z,23.00
2023-03-16T23:50:57.496Z,23.00
2023-03-16T23:53:25.822Z,23.00
2023-03-16T23:55:52.843Z,23.00
2023-03-16T23:58:20.604Z,23.00
